createdAt,value
2019-01-14T00:00:41.128Z,0.00
2019-01-14T00:01:41.119Z,0.00
2019-01-14T00:02:41.110Z,0.00
2019-01-14T00:03:41.102Z,0.00
2019-01-14T00:04:41.091Z,0.00
2019-01-14T00:05:41.079Z,0.00
2019-01-14T00:06:41.073Z,0.00
2019-01-14T00:07:41.066Z,0.00
2019-01-14T00:08:41.055Z,0.00
2019-01-14T00:09:41.044Z,0.00
2019-01-14T00:10:41.036Z,0.00
2019-01-14T00:11:41.027Z,0.00
2019-01-14T00:12:41.017Z,0.00
2019-01-14T00:13:41.008Z,0.00
2019-01-14T00:14:40.998Z,0.00
2019-01-14T00:15:40.990Z,0.00
2019-01-14T00:16:40.979Z,0.00
2019-01-14T00:17:40.971Z,0.00
2019-01-14T00:18:40.959Z,0.00
2019-01-14T00:19:40.953Z,0.00
2019-01-14T00:20:40.945Z,0.00
2019-01-14T00:21:40.933Z,0.00
2019-01-14T00:22:40.927Z,0.00
2019-01-14T00:23:40.916Z,0.00
2019-01-14T00:24:40.908Z,0.00
2019-01-14T00:25:40.896Z,0.00
2019-01-14T00:26:40.890Z,0.00
2019-01-14T00:27:40.879Z,0.00
2019-01-14T00:28:40.874Z,0.00
2019-01-14T00:29:40.863Z,0.00
2019-01-14T00:30:40.855Z,0.00
2019-01-14T00:31:40.846Z,0.00
2019-01-14T00:32:40.835Z,0.00
2019-01-14T00:33:40.825Z,0.00
2019-01-14T00:34:40.817Z,0.00
2019-01-14T00:35:40.806Z,0.00
2019-01-14T00:36:40.796Z,0.00
2019-01-14T00:37:40.789Z,0.00
2019-01-14T00:38:40.780Z,0.00
2019-01-14T00:39:40.776Z,0.00
2019-01-14T00:40:40.762Z,0.00
2019-01-14T00:41:40.753Z,0.00
2019-01-14T00:42:40.746Z,0.00
2019-01-14T00:43:40.735Z,0.00
2019-01-14T00:44:40.725Z,0.00
2019-01-14T00:45:40.719Z,0.00
2019-01-14T00:46:40.708Z,0.00
2019-01-14T00:47:40.699Z,0.00
2019-01-14T00:48:40.690Z,0.00
2019-01-14T00:49:40.679Z,0.00
2019-01-14T00:50:40.669Z,0.00
2019-01-14T00:51:40.663Z,0.00
2019-01-14T00:52:40.653Z,0.00
2019-01-14T00:53:40.643Z,0.00
2019-01-14T00:54:40.636Z,0.00
2019-01-14T00:55:40.625Z,0.00
2019-01-14T00:56:40.616Z,0.00
2019-01-14T00:57:40.617Z,0.00
2019-01-14T00:58:40.598Z,0.00
2019-01-14T00:59:40.588Z,0.00
2019-01-14T01:00:40.579Z,0.00
2019-01-14T01:01:40.569Z,0.00
2019-01-14T01:02:40.562Z,0.00
2019-01-14T01:03:40.552Z,0.00
2019-01-14T01:04:40.543Z,0.00
2019-01-14T01:05:40.533Z,0.00
2019-01-14T01:06:40.523Z,0.00
2019-01-14T01:07:40.515Z,0.00
2019-01-14T01:08:40.505Z,0.00
2019-01-14T01:09:40.497Z,0.00
2019-01-14T01:10:40.487Z,0.00
2019-01-14T01:11:40.481Z,0.00
2019-01-14T01:12:41.326Z,0.00
2019-01-14T01:13:40.459Z,0.00
2019-01-14T01:14:40.450Z,0.00
2019-01-14T01:15:40.442Z,0.00
2019-01-14T01:16:40.432Z,0.00
2019-01-14T01:17:40.422Z,0.00
2019-01-14T01:18:40.410Z,0.00
2019-01-14T01:19:40.405Z,0.00
2019-01-14T01:20:40.394Z,0.00
2019-01-14T01:21:40.385Z,0.00
2019-01-14T01:22:40.376Z,0.00
2019-01-14T01:23:40.369Z,0.00
2019-01-14T01:24:40.359Z,0.00
2019-01-14T01:25:40.350Z,0.00
2019-01-14T01:26:40.340Z,0.00
2019-01-14T01:27:40.394Z,0.00
2019-01-14T01:28:40.321Z,0.00
2019-01-14T01:29:40.311Z,0.00
2019-01-14T01:30:40.299Z,0.00
2019-01-14T01:31:40.290Z,0.00
2019-01-14T01:32:40.283Z,0.00
2019-01-14T01:33:40.272Z,0.00
2019-01-14T01:34:40.268Z,0.00
2019-01-14T01:35:40.252Z,0.00
2019-01-14T01:36:40.246Z,0.00
2019-01-14T01:37:40.236Z,0.00
2019-01-14T01:38:40.226Z,0.00
2019-01-14T01:39:40.219Z,0.00
2019-01-14T01:40:40.209Z,0.00
2019-01-14T01:41:40.197Z,0.00
2019-01-14T01:42:40.188Z,0.00
2019-01-14T01:43:40.179Z,0.00
2019-01-14T01:44:40.170Z,0.00
2019-01-14T01:45:40.159Z,0.00
2019-01-14T01:46:40.153Z,0.00
2019-01-14T01:47:40.139Z,0.00
2019-01-14T01:48:40.132Z,0.00
2019-01-14T01:49:40.125Z,0.00
2019-01-14T01:50:40.111Z,0.00
2019-01-14T01:51:40.103Z,0.00
2019-01-14T01:52:40.095Z,0.00
2019-01-14T01:53:40.085Z,0.00
2019-01-14T01:54:40.074Z,0.00
2019-01-14T01:55:40.067Z,0.00
2019-01-14T01:56:40.055Z,0.00
2019-01-14T01:57:40.045Z,0.00
2019-01-14T01:58:40.036Z,0.00
2019-01-14T01:59:40.028Z,0.00
2019-01-14T02:00:40.016Z,0.00
2019-01-14T02:01:39.999Z,0.00
2019-01-14T02:02:39.999Z,0.00
2019-01-14T02:03:39.986Z,0.00
2019-01-14T02:04:39.980Z,0.00
2019-01-14T02:05:39.967Z,0.00
2019-01-14T02:06:39.959Z,0.00
2019-01-14T02:07:39.950Z,0.00
2019-01-14T02:08:39.939Z,0.00
2019-01-14T02:09:39.927Z,0.00
2019-01-14T02:10:39.922Z,0.00
2019-01-14T02:11:39.909Z,0.00
2019-01-14T02:12:39.901Z,0.00
2019-01-14T02:13:39.890Z,0.00
2019-01-14T02:14:39.879Z,0.00
2019-01-14T02:15:39.870Z,0.00
2019-01-14T02:16:39.863Z,0.00
2019-01-14T02:17:39.891Z,0.00
2019-01-14T02:18:39.842Z,0.00
2019-01-14T02:19:39.831Z,0.00
2019-01-14T02:20:39.821Z,0.00
2019-01-14T02:21:39.812Z,0.00
2019-01-14T02:22:39.804Z,0.00
2019-01-14T02:23:39.791Z,0.00
2019-01-14T02:24:39.783Z,0.00
2019-01-14T02:25:39.772Z,0.00
2019-01-14T02:26:39.764Z,0.00
2019-01-14T02:27:39.751Z,0.00
2019-01-14T02:28:39.742Z,0.00
2019-01-14T02:29:39.732Z,0.00
2019-01-14T02:30:39.723Z,0.00
2019-01-14T02:31:39.713Z,0.00
2019-01-14T02:32:39.703Z,0.00
2019-01-14T02:33:39.692Z,0.00
2019-01-14T02:34:39.713Z,0.00
2019-01-14T02:35:39.672Z,0.00
2019-01-14T02:36:48.180Z,0.00
2019-01-14T02:37:39.652Z,0.00
2019-01-14T02:38:39.643Z,0.00
2019-01-14T02:39:39.634Z,0.00
2019-01-14T02:40:39.622Z,0.00
2019-01-14T02:41:39.613Z,0.00
2019-01-14T02:42:39.604Z,0.00
2019-01-14T02:43:39.591Z,0.00
2019-01-14T02:44:39.582Z,0.00
2019-01-14T02:45:39.571Z,0.00
2019-01-14T02:46:39.564Z,0.00
2019-01-14T02:47:39.548Z,0.00
2019-01-14T02:48:39.543Z,0.00
2019-01-14T02:49:39.532Z,0.00
2019-01-14T02:50:39.521Z,0.00
2019-01-14T02:51:39.514Z,0.00
2019-01-14T02:52:39.974Z,0.00
2019-01-14T02:53:39.491Z,0.00
2019-01-14T02:54:39.486Z,0.00
2019-01-14T02:55:39.472Z,0.00
2019-01-14T02:56:39.462Z,0.00
2019-01-14T02:57:39.452Z,0.00
2019-01-14T02:58:39.440Z,0.00
2019-01-14T02:59:39.429Z,0.00
2019-01-14T03:00:39.423Z,0.00
2019-01-14T03:01:39.411Z,0.00
2019-01-14T03:02:39.400Z,0.00
2019-01-14T03:03:39.390Z,0.00
2019-01-14T03:04:39.380Z,0.00
2019-01-14T03:05:39.371Z,0.00
2019-01-14T03:06:39.359Z,0.00
2019-01-14T03:07:40.481Z,0.00
2019-01-14T03:08:41.205Z,0.00
2019-01-14T03:09:39.329Z,0.00
2019-01-14T03:10:39.319Z,0.00
2019-01-14T03:11:39.309Z,0.00
2019-01-14T03:12:39.298Z,0.00
2019-01-14T03:13:39.288Z,0.00
2019-01-14T03:14:39.279Z,0.00
2019-01-14T03:15:39.266Z,0.00
2019-01-14T03:16:39.257Z,0.00
2019-01-14T03:17:39.245Z,0.00
2019-01-14T03:18:39.253Z,0.00
2019-01-14T03:19:39.226Z,0.00
2019-01-14T03:20:39.216Z,0.00
2019-01-14T03:21:39.206Z,0.00
2019-01-14T03:22:39.196Z,0.00
2019-01-14T03:23:39.185Z,0.00
2019-01-14T03:24:39.176Z,0.00
2019-01-14T03:25:39.164Z,0.00
2019-01-14T03:26:39.157Z,0.00
2019-01-14T03:27:39.150Z,0.00
2019-01-14T03:28:39.132Z,0.00
2019-01-14T03:29:39.119Z,0.00
2019-01-14T03:30:39.110Z,0.00
2019-01-14T03:31:39.101Z,0.00
2019-01-14T03:32:39.103Z,0.00
2019-01-14T03:33:39.077Z,0.00
2019-01-14T03:34:39.068Z,0.00
2019-01-14T03:35:39.056Z,0.00
2019-01-14T03:36:39.047Z,0.00
2019-01-14T03:37:39.035Z,0.00
2019-01-14T03:38:39.024Z,0.00
2019-01-14T03:39:39.013Z,0.00
2019-01-14T03:40:39.008Z,0.00
2019-01-14T03:41:38.996Z,0.00
2019-01-14T03:42:38.982Z,0.00
2019-01-14T03:43:38.971Z,0.00
2019-01-14T03:44:38.961Z,0.00
2019-01-14T03:45:38.950Z,0.00
2019-01-14T03:46:38.941Z,0.00
2019-01-14T03:47:38.929Z,0.00
2019-01-14T03:48:38.922Z,0.00
2019-01-14T03:49:38.907Z,0.00
2019-01-14T03:50:38.895Z,0.00
2019-01-14T03:51:38.887Z,0.00
2019-01-14T03:52:38.875Z,0.00
2019-01-14T03:53:38.862Z,0.00
2019-01-14T03:54:38.852Z,0.00
2019-01-14T03:55:38.845Z,0.00
2019-01-14T03:56:38.832Z,0.00
2019-01-14T03:57:38.819Z,0.00
2019-01-14T03:58:41.076Z,0.00
2019-01-14T03:59:38.798Z,0.00
2019-01-14T04:00:38.790Z,0.00
2019-01-14T04:01:38.778Z,0.00
2019-01-14T04:02:38.769Z,0.00
2019-01-14T04:03:38.755Z,0.00
2019-01-14T04:04:38.744Z,0.00
2019-01-14T04:05:38.735Z,0.00
2019-01-14T04:06:38.724Z,0.00
2019-01-14T04:07:38.712Z,0.00
2019-01-14T04:08:38.700Z,0.00
2019-01-14T04:09:38.691Z,0.00
2019-01-14T04:10:38.678Z,0.00
2019-01-14T04:11:38.668Z,0.00
2019-01-14T04:12:38.657Z,0.00
2019-01-14T04:13:38.646Z,0.00
2019-01-14T04:14:38.637Z,0.00
2019-01-14T04:15:38.624Z,0.00
2019-01-14T04:16:38.613Z,0.00
2019-01-14T04:17:38.604Z,0.00
2019-01-14T04:18:38.595Z,0.00
2019-01-14T04:19:38.599Z,0.00
2019-01-14T04:20:38.570Z,0.00
2019-01-14T04:21:38.558Z,0.00
2019-01-14T04:22:38.550Z,0.00
2019-01-14T04:23:38.543Z,0.00
2019-01-14T04:24:38.536Z,0.00
2019-01-14T04:25:38.517Z,0.00
2019-01-14T04:26:38.505Z,0.00
2019-01-14T04:27:38.496Z,0.00
2019-01-14T04:28:38.485Z,0.00
2019-01-14T04:29:38.470Z,0.00
2019-01-14T04:30:38.462Z,0.00
2019-01-14T04:31:38.438Z,0.00
2019-01-14T04:32:38.434Z,0.00
2019-01-14T04:33:38.428Z,0.00
2019-01-14T04:34:38.416Z,0.00
2019-01-14T04:35:38.407Z,0.00
2019-01-14T04:36:38.395Z,0.00
2019-01-14T04:37:38.384Z,0.00
2019-01-14T04:38:38.376Z,0.00
2019-01-14T04:39:38.362Z,0.00
2019-01-14T04:40:38.354Z,0.00
2019-01-14T04:41:38.341Z,0.00
2019-01-14T04:42:38.330Z,0.00
2019-01-14T04:43:38.321Z,0.00
2019-01-14T04:44:38.306Z,0.00
2019-01-14T04:45:38.297Z,0.00
2019-01-14T04:46:38.288Z,0.00
2019-01-14T04:47:38.276Z,0.00
2019-01-14T04:48:40.517Z,0.00
2019-01-14T04:49:38.261Z,0.00
2019-01-14T04:50:38.250Z,0.00
2019-01-14T04:51:38.237Z,0.00
2019-01-14T04:52:38.225Z,0.00
2019-01-14T04:53:38.212Z,0.00
2019-01-14T04:54:38.209Z,0.00
2019-01-14T04:55:38.189Z,0.00
2019-01-14T04:56:38.182Z,0.00
2019-01-14T04:57:38.169Z,0.00
2019-01-14T04:58:38.159Z,0.00
2019-01-14T04:59:38.148Z,0.00
2019-01-14T05:00:38.165Z,0.00
2019-01-14T05:01:38.123Z,0.00
2019-01-14T05:02:38.122Z,0.00
2019-01-14T05:03:38.106Z,0.00
2019-01-14T05:04:38.095Z,0.00
2019-01-14T05:05:38.083Z,0.00
2019-01-14T05:06:38.073Z,0.00
2019-01-14T05:07:38.062Z,0.00
2019-01-14T05:08:38.052Z,0.00
2019-01-14T05:09:38.042Z,0.00
2019-01-14T05:10:38.031Z,0.00
2019-01-14T05:11:38.027Z,0.00
2019-01-14T05:12:38.011Z,0.00
2019-01-14T05:13:38.000Z,0.00
2019-01-14T05:14:37.988Z,0.00
2019-01-14T05:15:38.005Z,0.00
2019-01-14T05:16:37.970Z,0.00
2019-01-14T05:17:37.957Z,0.00
2019-01-14T05:18:37.956Z,0.00
2019-01-14T05:19:37.943Z,0.00
2019-01-14T05:20:37.926Z,0.00
2019-01-14T05:21:37.930Z,0.00
2019-01-14T05:22:37.928Z,0.00
2019-01-14T05:23:37.937Z,0.00
2019-01-14T05:24:37.884Z,0.00
2019-01-14T05:25:37.875Z,0.00
2019-01-14T05:26:37.866Z,0.00
2019-01-14T05:27:37.855Z,0.00
2019-01-14T05:28:37.843Z,0.00
2019-01-14T05:29:37.839Z,0.00
2019-01-14T05:30:37.828Z,0.00
2019-01-14T05:31:37.815Z,0.00
2019-01-14T05:32:37.799Z,0.00
2019-01-14T05:33:37.792Z,0.00
2019-01-14T05:34:37.785Z,0.00
2019-01-14T05:35:37.770Z,0.00
2019-01-14T05:36:37.760Z,0.00
2019-01-14T05:37:38.203Z,0.00
2019-01-14T05:38:37.737Z,0.00
2019-01-14T05:39:37.729Z,0.00
2019-01-14T05:40:37.719Z,0.00
2019-01-14T05:41:37.708Z,0.00
2019-01-14T05:42:37.729Z,0.00
2019-01-14T05:43:37.689Z,0.00
2019-01-14T05:44:37.712Z,0.00
2019-01-14T05:45:37.668Z,0.00
2019-01-14T05:46:37.659Z,0.00
2019-01-14T05:47:37.649Z,0.00
2019-01-14T05:48:37.648Z,0.00
2019-01-14T05:49:37.631Z,0.00
2019-01-14T05:50:37.618Z,0.00
2019-01-14T05:51:37.611Z,0.00
2019-01-14T05:52:37.602Z,0.00
2019-01-14T05:53:37.587Z,0.00
2019-01-14T05:54:37.577Z,0.00
2019-01-14T05:55:37.568Z,0.00
2019-01-14T05:56:37.556Z,0.00
2019-01-14T05:57:37.545Z,0.00
2019-01-14T05:58:37.542Z,0.00
2019-01-14T05:59:37.525Z,0.00
2019-01-14T06:00:37.519Z,0.00
2019-01-14T06:01:37.507Z,0.00
2019-01-14T06:02:37.511Z,0.00
2019-01-14T06:03:37.479Z,0.00
2019-01-14T06:04:37.477Z,0.00
2019-01-14T06:05:37.471Z,0.00
2019-01-14T06:06:37.455Z,0.00
2019-01-14T06:07:44.682Z,0.00
2019-01-14T06:08:37.436Z,0.00
2019-01-14T06:09:37.426Z,0.00
2019-01-14T06:10:37.416Z,0.00
2019-01-14T06:11:37.413Z,0.00
2019-01-14T06:12:37.411Z,0.00
2019-01-14T06:13:37.386Z,0.00
2019-01-14T06:14:37.378Z,0.00
2019-01-14T06:15:37.365Z,0.00
2019-01-14T06:16:37.355Z,0.00
2019-01-14T06:17:37.360Z,0.00
2019-01-14T06:18:37.339Z,0.00
2019-01-14T06:19:37.330Z,0.00
2019-01-14T06:20:37.317Z,0.00
2019-01-14T06:21:37.304Z,0.00
2019-01-14T06:22:37.300Z,0.00
2019-01-14T06:23:37.285Z,0.00
2019-01-14T06:24:37.275Z,0.00
2019-01-14T06:25:37.268Z,0.00
2019-01-14T06:26:37.257Z,0.00
2019-01-14T06:27:37.244Z,0.00
2019-01-14T06:28:37.236Z,0.00
2019-01-14T06:29:37.272Z,0.00
2019-01-14T06:30:37.215Z,0.00
2019-01-14T06:31:37.206Z,0.00
2019-01-14T06:32:37.194Z,0.00
2019-01-14T06:33:37.183Z,0.00
2019-01-14T06:34:37.175Z,0.00
2019-01-14T06:35:37.163Z,0.00
2019-01-14T06:36:37.153Z,0.00
2019-01-14T06:37:37.144Z,0.00
2019-01-14T06:38:37.133Z,0.00
2019-01-14T06:39:37.123Z,0.00
2019-01-14T06:40:37.111Z,0.00
2019-01-14T06:41:37.267Z,0.00
2019-01-14T06:42:37.090Z,0.00
2019-01-14T06:43:37.082Z,0.00
2019-01-14T06:44:37.069Z,0.00
2019-01-14T06:45:37.061Z,0.00
2019-01-14T06:46:37.050Z,0.00
2019-01-14T06:47:37.038Z,0.00
2019-01-14T06:48:37.035Z,0.00
2019-01-14T06:49:37.016Z,0.00
2019-01-14T06:50:37.008Z,0.00
2019-01-14T06:51:37.000Z,0.00
2019-01-14T06:52:36.987Z,0.00
2019-01-14T06:53:36.975Z,0.00
2019-01-14T06:54:36.965Z,0.00
2019-01-14T06:55:36.971Z,0.00
2019-01-14T06:56:36.945Z,0.00
2019-01-14T06:57:36.942Z,5.63
2019-01-14T06:58:36.925Z,5.63
2019-01-14T06:59:36.914Z,5.63
2019-01-14T07:00:36.904Z,5.63
2019-01-14T07:01:36.884Z,5.63
2019-01-14T07:02:36.893Z,5.63
2019-01-14T07:03:36.869Z,5.63
2019-01-14T07:04:36.869Z,5.63
2019-01-14T07:05:36.855Z,11.25
2019-01-14T07:06:36.844Z,11.25
2019-01-14T07:07:36.840Z,11.25
2019-01-14T07:08:36.822Z,11.25
2019-01-14T07:09:36.811Z,11.25
2019-01-14T07:10:36.802Z,11.25
2019-01-14T07:11:36.791Z,11.25
2019-01-14T07:12:36.781Z,11.25
2019-01-14T07:13:36.774Z,11.25
2019-01-14T07:14:36.761Z,16.88
2019-01-14T07:15:36.753Z,16.88
2019-01-14T07:16:36.740Z,16.88
2019-01-14T07:17:36.733Z,16.88
2019-01-14T07:18:36.721Z,22.50
2019-01-14T07:19:36.710Z,22.50
2019-01-14T07:20:36.752Z,22.50
2019-01-14T07:21:36.690Z,22.50
2019-01-14T07:22:36.684Z,28.13
2019-01-14T07:23:36.670Z,28.13
2019-01-14T07:24:36.667Z,28.13
2019-01-14T07:25:36.656Z,28.13
2019-01-14T07:26:36.633Z,33.75
2019-01-14T07:27:36.633Z,33.75
2019-01-14T07:28:36.619Z,39.38
2019-01-14T07:29:36.611Z,45.00
2019-01-14T07:30:36.599Z,50.63
2019-01-14T07:31:36.588Z,50.63
2019-01-14T07:32:36.579Z,56.25
2019-01-14T07:33:36.569Z,56.25
2019-01-14T07:34:36.560Z,61.88
2019-01-14T07:35:36.573Z,61.88
2019-01-14T07:36:36.543Z,67.50
2019-01-14T07:37:36.527Z,67.50
2019-01-14T07:38:36.520Z,67.50
2019-01-14T07:39:36.509Z,73.13
2019-01-14T07:40:36.501Z,78.75
2019-01-14T07:41:36.494Z,84.38
2019-01-14T07:42:36.479Z,84.38
2019-01-14T07:43:36.471Z,90.00
2019-01-14T07:44:36.459Z,90.00
2019-01-14T07:45:36.447Z,90.00
2019-01-14T07:46:36.438Z,84.38
2019-01-14T07:47:36.428Z,78.75
2019-01-14T07:48:36.420Z,78.75
2019-01-14T07:49:36.408Z,84.38
2019-01-14T07:50:36.398Z,90.00
2019-01-14T07:51:36.393Z,90.00
2019-01-14T07:52:36.379Z,78.75
2019-01-14T07:53:36.368Z,73.13
2019-01-14T07:54:36.359Z,78.75
2019-01-14T07:55:36.349Z,84.38
2019-01-14T07:56:36.339Z,95.63
2019-01-14T07:57:36.332Z,106.88
2019-01-14T07:58:36.322Z,123.75
2019-01-14T07:59:36.310Z,146.25
2019-01-14T08:00:36.300Z,168.75
2019-01-14T08:01:36.290Z,185.63
2019-01-14T08:02:36.281Z,196.88
2019-01-14T08:03:36.272Z,202.50
2019-01-14T08:04:36.262Z,191.25
2019-01-14T08:05:36.251Z,180.00
2019-01-14T08:06:36.242Z,163.13
2019-01-14T08:07:36.221Z,157.50
2019-01-14T08:08:36.224Z,163.13
2019-01-14T08:09:36.213Z,168.75
2019-01-14T08:10:36.302Z,168.75
2019-01-14T08:11:36.240Z,168.75
2019-01-14T08:12:36.184Z,163.13
2019-01-14T08:13:36.175Z,157.50
2019-01-14T08:14:36.175Z,146.25
2019-01-14T08:15:36.157Z,140.63
2019-01-14T08:16:36.148Z,140.63
2019-01-14T08:17:36.138Z,140.63
2019-01-14T08:18:36.126Z,146.25
2019-01-14T08:19:36.118Z,151.88
2019-01-14T08:20:36.110Z,151.88
2019-01-14T08:21:36.092Z,151.88
2019-01-14T08:22:36.107Z,157.50
2019-01-14T08:23:36.080Z,163.13
2019-01-14T08:24:36.072Z,168.75
2019-01-14T08:25:37.465Z,168.75
2019-01-14T08:26:36.043Z,168.75
2019-01-14T08:27:36.043Z,168.75
2019-01-14T08:28:36.036Z,168.75
2019-01-14T08:29:36.026Z,168.75
2019-01-14T08:30:36.015Z,168.75
2019-01-14T08:31:36.008Z,180.00
2019-01-14T08:32:36.000Z,191.25
2019-01-14T08:33:35.992Z,191.25
2019-01-14T08:34:35.977Z,191.25
2019-01-14T08:35:35.969Z,202.50
2019-01-14T08:36:35.961Z,213.75
2019-01-14T08:37:35.952Z,230.63
2019-01-14T08:38:35.941Z,219.38
2019-01-14T08:39:35.931Z,196.88
2019-01-14T08:40:35.922Z,196.88
2019-01-14T08:41:35.914Z,196.88
2019-01-14T08:42:37.377Z,196.88
2019-01-14T08:43:35.899Z,196.88
2019-01-14T08:44:35.886Z,202.50
2019-01-14T08:45:35.878Z,225.00
2019-01-14T08:46:35.867Z,258.75
2019-01-14T08:47:35.859Z,315.00
2019-01-14T08:48:35.853Z,281.25
2019-01-14T08:49:35.839Z,241.88
2019-01-14T08:50:35.853Z,213.75
2019-01-14T08:51:35.822Z,202.50
2019-01-14T08:52:35.813Z,202.50
2019-01-14T08:53:35.803Z,208.13
2019-01-14T08:54:35.794Z,219.38
2019-01-14T08:55:35.786Z,241.88
2019-01-14T08:56:35.775Z,253.13
2019-01-14T08:57:35.767Z,270.00
2019-01-14T08:58:35.756Z,298.13
2019-01-14T08:59:35.748Z,286.88
2019-01-14T09:00:35.739Z,264.38
2019-01-14T09:01:38.139Z,270.00
2019-01-14T09:02:35.720Z,292.50
2019-01-14T09:03:35.708Z,360.00
2019-01-14T09:04:35.703Z,343.13
2019-01-14T09:05:35.693Z,365.63
2019-01-14T09:06:35.687Z,393.75
2019-01-14T09:07:35.676Z,427.50
2019-01-14T09:08:35.668Z,433.13
2019-01-14T09:09:35.662Z,399.38
2019-01-14T09:10:35.649Z,376.88
2019-01-14T09:11:35.645Z,365.63
2019-01-14T09:12:35.635Z,371.25
2019-01-14T09:13:35.626Z,376.88
2019-01-14T09:14:35.616Z,478.13
2019-01-14T09:15:35.607Z,495.00
2019-01-14T09:16:35.601Z,528.75
2019-01-14T09:17:35.590Z,551.25
2019-01-14T09:18:35.610Z,624.38
2019-01-14T09:19:35.577Z,691.88
2019-01-14T09:20:35.569Z,680.63
2019-01-14T09:21:35.561Z,641.25
2019-01-14T09:22:35.557Z,618.75
2019-01-14T09:23:35.541Z,624.38
2019-01-14T09:24:35.540Z,562.50
2019-01-14T09:25:35.531Z,528.75
2019-01-14T09:26:35.520Z,495.00
2019-01-14T09:27:35.519Z,472.50
2019-01-14T09:28:35.513Z,455.63
2019-01-14T09:29:35.506Z,433.13
2019-01-14T09:30:35.501Z,416.25
2019-01-14T09:31:35.489Z,399.38
2019-01-14T09:32:35.485Z,405.00
2019-01-14T09:33:35.481Z,421.88
2019-01-14T09:34:35.472Z,461.25
2019-01-14T09:35:35.466Z,455.63
2019-01-14T09:36:35.457Z,421.88
2019-01-14T09:37:35.451Z,393.75
2019-01-14T09:38:36.025Z,405.00
2019-01-14T09:39:35.443Z,405.00
2019-01-14T09:40:35.431Z,421.88
2019-01-14T09:41:35.425Z,478.13
2019-01-14T09:42:35.418Z,579.38
2019-01-14T09:43:35.410Z,652.50
2019-01-14T09:44:35.412Z,658.13
2019-01-14T09:45:35.398Z,624.38
2019-01-14T09:46:35.390Z,556.88
2019-01-14T09:47:35.381Z,489.38
2019-01-14T09:48:35.377Z,444.38
2019-01-14T09:49:35.387Z,410.63
2019-01-14T09:50:35.363Z,393.75
2019-01-14T09:51:35.394Z,388.13
2019-01-14T09:52:35.373Z,382.50
2019-01-14T09:53:35.341Z,365.63
2019-01-14T09:54:35.335Z,365.63
2019-01-14T09:55:35.326Z,388.13
2019-01-14T09:56:35.323Z,399.38
2019-01-14T09:57:35.319Z,393.75
2019-01-14T09:58:35.306Z,376.88
2019-01-14T09:59:35.301Z,382.50
2019-01-14T10:00:35.296Z,405.00
2019-01-14T10:01:35.287Z,427.50
2019-01-14T10:02:35.278Z,483.75
2019-01-14T10:03:35.272Z,478.13
2019-01-14T10:04:35.268Z,472.50
2019-01-14T10:05:35.261Z,455.63
2019-01-14T10:06:35.268Z,444.38
2019-01-14T10:07:35.284Z,444.38
2019-01-14T10:08:35.239Z,472.50
2019-01-14T10:09:35.229Z,495.00
2019-01-14T10:10:35.224Z,495.00
2019-01-14T10:11:35.219Z,562.50
2019-01-14T10:12:35.210Z,579.38
2019-01-14T10:13:35.204Z,523.13
2019-01-14T10:14:35.195Z,506.25
2019-01-14T10:15:35.186Z,517.50
2019-01-14T10:16:35.182Z,551.25
2019-01-14T10:17:35.175Z,568.13
2019-01-14T10:18:35.166Z,579.38
2019-01-14T10:19:35.161Z,618.75
2019-01-14T10:20:35.156Z,601.88
2019-01-14T10:21:35.149Z,579.38
2019-01-14T10:22:35.142Z,545.63
2019-01-14T10:23:35.135Z,523.13
2019-01-14T10:24:35.129Z,562.50
2019-01-14T10:25:35.121Z,613.13
2019-01-14T10:26:35.124Z,658.13
2019-01-14T10:27:35.113Z,680.63
2019-01-14T10:28:35.101Z,725.63
2019-01-14T10:29:35.097Z,770.63
2019-01-14T10:30:35.124Z,753.75
2019-01-14T10:31:35.086Z,748.13
2019-01-14T10:32:35.075Z,770.63
2019-01-14T10:33:35.173Z,742.50
2019-01-14T10:34:35.063Z,708.75
2019-01-14T10:35:35.057Z,697.50
2019-01-14T10:36:35.050Z,708.75
2019-01-14T10:37:35.044Z,691.88
2019-01-14T10:38:35.036Z,691.88
2019-01-14T10:39:35.031Z,708.75
2019-01-14T10:40:35.026Z,703.13
2019-01-14T10:41:35.018Z,731.25
2019-01-14T10:42:35.133Z,742.50
2019-01-14T10:43:37.076Z,691.88
2019-01-14T10:44:35.002Z,641.25
2019-01-14T10:45:35.001Z,658.13
2019-01-14T10:46:34.991Z,742.50
2019-01-14T10:47:34.987Z,781.88
2019-01-14T10:48:34.977Z,849.38
2019-01-14T10:49:34.967Z,945.00
2019-01-14T10:50:34.964Z,990.00
2019-01-14T10:51:34.960Z,945.00
2019-01-14T10:52:34.955Z,933.75
2019-01-14T10:53:34.949Z,973.13
2019-01-14T10:54:34.944Z,1023.75
2019-01-14T10:55:34.940Z,765.00
2019-01-14T10:56:34.933Z,714.38
2019-01-14T10:57:34.927Z,849.38
2019-01-14T10:58:34.922Z,939.38
2019-01-14T10:59:34.929Z,826.88
2019-01-14T11:00:34.914Z,607.50
2019-01-14T11:01:34.907Z,708.75
2019-01-14T11:02:34.905Z,697.50
2019-01-14T11:03:34.899Z,736.88
2019-01-14T11:04:34.892Z,871.88
2019-01-14T11:05:34.886Z,894.38
2019-01-14T11:06:34.880Z,922.50
2019-01-14T11:07:34.875Z,1102.50
2019-01-14T11:08:34.875Z,984.38
2019-01-14T11:09:34.867Z,888.75
2019-01-14T11:10:34.861Z,793.13
2019-01-14T11:11:34.865Z,810.00
2019-01-14T11:12:34.850Z,787.50
2019-01-14T11:13:34.848Z,787.50
2019-01-14T11:14:34.842Z,821.25
2019-01-14T11:15:34.838Z,798.75
2019-01-14T11:16:34.832Z,770.63
2019-01-14T11:17:34.841Z,675.00
2019-01-14T11:18:34.822Z,607.50
2019-01-14T11:19:34.820Z,590.63
2019-01-14T11:20:34.813Z,562.50
2019-01-14T11:21:34.816Z,534.38
2019-01-14T11:22:34.805Z,540.00
2019-01-14T11:23:34.798Z,534.38
2019-01-14T11:24:34.794Z,562.50
2019-01-14T11:25:34.787Z,534.38
2019-01-14T11:26:34.784Z,618.75
2019-01-14T11:27:34.776Z,630.00
2019-01-14T11:28:34.773Z,686.25
2019-01-14T11:29:34.770Z,562.50
2019-01-14T11:30:34.766Z,618.75
2019-01-14T11:31:34.746Z,562.50
2019-01-14T11:32:34.744Z,545.63
2019-01-14T11:33:34.743Z,686.25
2019-01-14T11:34:34.736Z,675.00
2019-01-14T11:35:34.731Z,793.13
2019-01-14T11:36:34.725Z,781.88
2019-01-14T11:37:34.720Z,826.88
2019-01-14T11:38:34.716Z,849.38
2019-01-14T11:39:34.709Z,883.13
2019-01-14T11:40:34.704Z,843.75
2019-01-14T11:41:34.698Z,916.88
2019-01-14T11:42:34.695Z,916.88
2019-01-14T11:43:34.722Z,888.75
2019-01-14T11:44:34.684Z,770.63
2019-01-14T11:45:34.675Z,708.75
2019-01-14T11:46:34.671Z,708.75
2019-01-14T11:47:34.664Z,703.13
2019-01-14T11:48:34.654Z,933.75
2019-01-14T11:49:34.656Z,1091.25
2019-01-14T11:50:34.655Z,894.38
2019-01-14T11:51:34.644Z,798.75
2019-01-14T11:52:34.640Z,770.63
2019-01-14T11:53:34.640Z,691.88
2019-01-14T11:54:34.636Z,781.88
2019-01-14T11:55:34.624Z,680.63
2019-01-14T11:56:34.619Z,658.13
2019-01-14T11:57:34.609Z,624.38
2019-01-14T11:58:34.609Z,556.88
2019-01-14T11:59:34.603Z,511.88
2019-01-14T12:00:36.752Z,511.88
2019-01-14T12:01:34.591Z,500.63
2019-01-14T12:02:39.455Z,433.13
2019-01-14T12:03:34.581Z,421.88
2019-01-14T12:04:34.576Z,466.88
2019-01-14T12:05:34.569Z,511.88
2019-01-14T12:06:34.576Z,556.88
2019-01-14T12:07:34.558Z,545.63
2019-01-14T12:08:34.553Z,478.13
2019-01-14T12:09:34.546Z,438.75
2019-01-14T12:10:34.540Z,489.38
2019-01-14T12:11:34.534Z,585.00
2019-01-14T12:12:34.538Z,601.88
2019-01-14T12:13:34.524Z,545.63
2019-01-14T12:14:34.517Z,540.00
2019-01-14T12:15:34.510Z,652.50
2019-01-14T12:16:34.508Z,731.25
2019-01-14T12:17:34.498Z,810.00
2019-01-14T12:18:34.491Z,753.75
2019-01-14T12:19:34.485Z,675.00
2019-01-14T12:20:34.478Z,742.50
2019-01-14T12:21:34.466Z,787.50
2019-01-14T12:22:34.466Z,759.38
2019-01-14T12:23:34.459Z,736.88
2019-01-14T12:24:34.455Z,613.13
2019-01-14T12:25:34.447Z,551.25
2019-01-14T12:26:34.442Z,523.13
2019-01-14T12:27:34.428Z,523.13
2019-01-14T12:28:34.433Z,551.25
2019-01-14T12:29:34.424Z,596.25
2019-01-14T12:30:34.434Z,607.50
2019-01-14T12:31:34.410Z,630.00
2019-01-14T12:32:34.404Z,658.13
2019-01-14T12:33:34.403Z,585.00
2019-01-14T12:34:34.396Z,585.00
2019-01-14T12:35:34.390Z,545.63
2019-01-14T12:36:34.381Z,489.38
2019-01-14T12:37:34.382Z,461.25
2019-01-14T12:38:34.367Z,376.88
2019-01-14T12:39:34.361Z,405.00
2019-01-14T12:40:34.358Z,450.00
2019-01-14T12:41:34.375Z,461.25
2019-01-14T12:42:34.342Z,416.25
2019-01-14T12:43:34.335Z,433.13
2019-01-14T12:44:34.330Z,433.13
2019-01-14T12:45:34.322Z,483.75
2019-01-14T12:46:34.317Z,545.63
2019-01-14T12:47:34.311Z,551.25
2019-01-14T12:48:34.306Z,663.75
2019-01-14T12:49:34.295Z,489.38
2019-01-14T12:50:34.288Z,433.13
2019-01-14T12:51:34.283Z,556.88
2019-01-14T12:52:34.276Z,511.88
2019-01-14T12:53:34.268Z,573.75
2019-01-14T12:54:34.258Z,618.75
2019-01-14T12:55:34.269Z,630.00
2019-01-14T12:56:34.249Z,573.75